createdAt,value
2024-05-09T00:00:44.355Z,15.10
2024-05-09T00:01:44.119Z,16.30
2024-05-09T00:02:44.049Z,18.80
2024-05-09T00:03:44.054Z,15.10
2024-05-09T00:04:44.075Z,18.30
2024-05-09T00:05:44.443Z,16.00
2024-05-09T00:06:44.008Z,19.70
2024-05-09T00:07:44.005Z,17.50
2024-05-09T00:08:44.038Z,15.90
2024-05-09T00:09:43.952Z,18.00
2024-05-09T00:10:43.975Z,16.70
2024-05-09T00:11:44.035Z,18.70
2024-05-09T00:12:43.934Z,15.20
2024-05-09T00:13:43.958Z,17.30
2024-05-09T00:14:43.891Z,15.70
2024-05-09T00:15:43.889Z,15.10
2024-05-09T00:16:43.986Z,16.50
2024-05-09T00:17:44.080Z,17.80
2024-05-09T00:18:43.997Z,17.80
2024-05-09T00:19:43.962Z,18.10
2024-05-09T00:20:43.891Z,17.60
2024-05-09T00:21:43.861Z,20.20
2024-05-09T00:22:43.878Z,15.80
2024-05-09T00:23:43.846Z,17.10
2024-05-09T00:24:43.777Z,18.60
2024-05-09T00:25:44.307Z,16.10
2024-05-09T00:26:43.851Z,15.90
2024-05-09T00:27:43.759Z,17.50
2024-05-09T00:28:43.773Z,15.40
2024-05-09T00:29:43.789Z,16.90
2024-05-09T00:30:43.732Z,17.50
2024-05-09T00:31:44.010Z,15.40
2024-05-09T00:32:43.854Z,17.10
2024-05-09T00:33:43.863Z,16.70
2024-05-09T00:34:43.802Z,18.20
2024-05-09T00:35:43.702Z,17.00
2024-05-09T00:36:43.659Z,18.50
2024-05-09T00:37:43.663Z,17.70
2024-05-09T00:38:43.751Z,16.40
2024-05-09T00:39:43.614Z,17.80
2024-05-09T00:40:43.948Z,17.30
2024-05-09T00:41:43.670Z,17.20
2024-05-09T00:42:43.582Z,14.90
2024-05-09T00:43:43.620Z,16.90
2024-05-09T00:44:43.555Z,15.60
2024-05-09T00:45:44.184Z,15.20
2024-05-09T00:46:43.675Z,18.50
2024-05-09T00:47:43.679Z,16.90
2024-05-09T00:48:43.633Z,15.90
2024-05-09T00:49:43.639Z,15.20
2024-05-09T00:50:43.558Z,15.60
2024-05-09T00:51:43.480Z,16.80
2024-05-09T00:52:43.533Z,15.60
2024-05-09T00:53:43.507Z,17.20
2024-05-09T00:54:43.453Z,15.80
2024-05-09T00:55:43.493Z,18.10
2024-05-09T00:56:43.503Z,17.70
2024-05-09T00:57:43.425Z,14.50
2024-05-09T00:58:43.433Z,16.60
2024-05-09T00:59:43.422Z,15.20
2024-05-09T01:00:43.577Z,16.70
2024-05-09T01:01:43.710Z,16.40
2024-05-09T01:02:43.497Z,17.10
2024-05-09T01:03:44.313Z,17.60
2024-05-09T01:04:43.548Z,16.30
2024-05-09T01:05:43.702Z,16.10
2024-05-09T01:06:43.320Z,16.70
2024-05-09T01:07:43.361Z,16.60
2024-05-09T01:08:43.328Z,17.00
2024-05-09T01:09:43.298Z,19.30
2024-05-09T01:10:45.199Z,17.60
2024-05-09T01:11:43.419Z,17.30
2024-05-09T01:12:43.266Z,15.40
2024-05-09T01:13:43.266Z,16.90
2024-05-09T01:14:44.214Z,15.10
2024-05-09T01:15:43.303Z,18.60
2024-05-09T01:16:43.341Z,17.20
2024-05-09T01:17:43.509Z,15.90
2024-05-09T01:18:43.272Z,17.50
2024-05-09T01:19:43.419Z,16.40
2024-05-09T01:20:45.096Z,16.60
2024-05-09T01:21:43.219Z,17.10
2024-05-09T01:22:43.295Z,16.00
2024-05-09T01:23:43.209Z,18.00
2024-05-09T01:24:43.127Z,17.40
2024-05-09T01:25:43.288Z,17.80
2024-05-09T01:26:43.226Z,19.00
2024-05-09T01:27:43.083Z,15.10
2024-05-09T01:28:43.181Z,20.10
2024-05-09T01:29:43.059Z,16.40
2024-05-09T01:30:43.051Z,18.60
2024-05-09T01:31:43.129Z,15.00
2024-05-09T01:32:43.173Z,16.40
2024-05-09T01:33:43.164Z,16.20
2024-05-09T01:34:43.072Z,18.00
2024-05-09T01:35:43.383Z,16.60
2024-05-09T01:36:42.991Z,16.40
2024-05-09T01:37:43.126Z,16.90
2024-05-09T01:38:43.008Z,17.40
2024-05-09T01:39:43.877Z,17.80
2024-05-09T01:40:43.146Z,15.00
2024-05-09T01:41:42.930Z,21.20
2024-05-09T01:42:43.902Z,19.00
2024-05-09T01:43:43.177Z,13.80
2024-05-09T01:44:43.133Z,15.60
2024-05-09T01:45:42.902Z,17.50
2024-05-09T01:46:43.024Z,16.50
2024-05-09T01:47:43.166Z,17.30
2024-05-09T01:48:42.943Z,14.70
2024-05-09T01:49:43.251Z,16.30
2024-05-09T01:50:43.578Z,16.70
2024-05-09T01:51:42.853Z,15.00
2024-05-09T01:52:42.861Z,16.00
2024-05-09T01:53:42.837Z,17.30
2024-05-09T01:54:42.787Z,15.90
2024-05-09T01:55:42.970Z,15.40
2024-05-09T01:56:42.813Z,17.40
2024-05-09T01:57:42.775Z,15.10
2024-05-09T01:58:42.806Z,15.60
2024-05-09T01:59:42.731Z,17.70
2024-05-09T02:00:43.630Z,16.50
2024-05-09T02:01:56.174Z,14.00
2024-05-09T02:02:42.844Z,18.00
2024-05-09T02:03:42.914Z,17.00
2024-05-09T02:04:42.771Z,17.60
2024-05-09T02:05:42.851Z,16.20
2024-05-09T02:06:42.676Z,16.70
2024-05-09T02:07:42.765Z,16.40
2024-05-09T02:08:42.635Z,16.70
2024-05-09T02:09:42.652Z,17.70
2024-05-09T02:10:42.660Z,19.10
2024-05-09T02:11:42.668Z,19.60
2024-05-09T02:12:42.584Z,18.80
2024-05-09T02:13:42.658Z,18.60
2024-05-09T02:14:42.643Z,14.60
2024-05-09T02:15:42.597Z,16.20
2024-05-09T02:16:42.716Z,16.80
2024-05-09T02:17:42.773Z,16.10
2024-05-09T02:18:42.669Z,20.30
2024-05-09T02:19:42.499Z,17.10
2024-05-09T02:20:43.350Z,20.80
2024-05-09T02:21:42.485Z,17.80
2024-05-09T02:22:42.499Z,15.90
2024-05-09T02:23:42.501Z,16.40
2024-05-09T02:24:42.450Z,16.40
2024-05-09T02:25:42.443Z,16.60
2024-05-09T02:26:42.436Z,18.10
2024-05-09T02:27:42.452Z,21.60
2024-05-09T02:28:42.413Z,16.50
2024-05-09T02:29:42.455Z,17.80
2024-05-09T02:30:42.805Z,18.90
2024-05-09T02:31:42.413Z,19.50
2024-05-09T02:32:42.504Z,18.90
2024-05-09T02:33:42.460Z,19.30
2024-05-09T02:34:42.344Z,17.90
2024-05-09T02:35:42.993Z,17.20
2024-05-09T02:36:42.344Z,19.70
2024-05-09T02:37:42.331Z,19.40
2024-05-09T02:38:42.321Z,17.00
2024-05-09T02:39:42.336Z,17.00
2024-05-09T02:40:42.262Z,19.50
2024-05-09T02:41:42.264Z,20.60
2024-05-09T02:42:42.253Z,19.10
2024-05-09T02:43:42.270Z,18.30
2024-05-09T02:44:42.231Z,20.00
2024-05-09T02:45:42.260Z,20.50
2024-05-09T02:46:42.497Z,19.10
2024-05-09T02:47:42.405Z,19.90
2024-05-09T02:48:42.271Z,18.10
2024-05-09T02:49:42.232Z,16.50
2024-05-09T02:50:42.439Z,17.70
2024-05-09T02:51:42.161Z,19.70
2024-05-09T02:52:42.177Z,20.10
2024-05-09T02:53:42.177Z,18.00
2024-05-09T02:54:42.139Z,18.30
2024-05-09T02:55:42.936Z,17.10
2024-05-09T02:56:42.174Z,17.90
2024-05-09T02:57:42.073Z,17.70
2024-05-09T02:58:42.096Z,21.80
2024-05-09T02:59:42.057Z,16.80
2024-05-09T03:00:43.073Z,17.70
2024-05-09T03:01:42.153Z,18.10
2024-05-09T03:02:42.185Z,16.40
2024-05-09T03:03:42.182Z,18.70
2024-05-09T03:04:42.111Z,17.90
2024-05-09T03:05:42.358Z,16.60
2024-05-09T03:06:41.984Z,19.20
2024-05-09T03:07:41.966Z,17.70
2024-05-09T03:08:41.970Z,17.30
2024-05-09T03:09:41.948Z,17.70
2024-05-09T03:10:41.949Z,17.10
2024-05-09T03:11:42.124Z,16.00
2024-05-09T03:12:41.960Z,18.80
2024-05-09T03:13:41.941Z,18.00
2024-05-09T03:14:41.890Z,18.90
2024-05-09T03:15:42.006Z,16.20
2024-05-09T03:16:41.872Z,16.10
2024-05-09T03:17:42.122Z,18.50
2024-05-09T03:18:42.003Z,17.70
2024-05-09T03:19:41.834Z,18.00
2024-05-09T03:20:41.917Z,16.90
2024-05-09T03:21:41.803Z,18.00
2024-05-09T03:22:41.796Z,16.30
2024-05-09T03:23:41.891Z,18.70
2024-05-09T03:24:41.818Z,18.60
2024-05-09T03:25:41.765Z,16.90
2024-05-09T03:26:41.757Z,16.40
2024-05-09T03:27:41.767Z,15.90
2024-05-09T03:28:41.744Z,16.20
2024-05-09T03:29:41.787Z,16.10
2024-05-09T03:30:43.167Z,18.40
2024-05-09T03:31:41.790Z,15.70
2024-05-09T03:32:41.888Z,16.20
2024-05-09T03:33:41.774Z,17.00
2024-05-09T03:34:41.668Z,18.30
2024-05-09T03:35:41.694Z,18.10
2024-05-09T03:36:41.645Z,17.10
2024-05-09T03:37:42.569Z,17.50
2024-05-09T03:38:41.674Z,16.70
2024-05-09T03:39:41.649Z,16.50
2024-05-09T03:40:41.624Z,16.30
2024-05-09T03:41:41.696Z,14.80
2024-05-09T03:42:41.598Z,15.50
2024-05-09T03:43:41.638Z,17.10
2024-05-09T03:44:41.649Z,15.70
2024-05-09T03:45:41.556Z,16.90
2024-05-09T03:46:41.546Z,17.80
2024-05-09T03:47:41.848Z,17.80
2024-05-09T03:48:41.735Z,19.60
2024-05-09T03:49:41.540Z,16.40
2024-05-09T03:50:41.644Z,19.30
2024-05-09T03:51:41.506Z,20.00
2024-05-09T03:52:41.495Z,19.70
2024-05-09T03:53:41.473Z,18.00
2024-05-09T03:54:41.446Z,15.70
2024-05-09T03:55:41.444Z,16.30
2024-05-09T03:56:42.504Z,16.70
2024-05-09T03:57:41.454Z,17.20
2024-05-09T03:58:41.401Z,17.90
2024-05-09T03:59:41.389Z,19.80
2024-05-09T04:00:41.526Z,16.80
2024-05-09T04:01:41.534Z,17.80
2024-05-09T04:02:41.459Z,19.40
2024-05-09T04:03:41.471Z,22.40
2024-05-09T04:04:41.439Z,17.40
2024-05-09T04:05:42.577Z,17.20
2024-05-09T04:06:41.348Z,18.10
2024-05-09T04:07:41.517Z,17.70
2024-05-09T04:08:41.498Z,15.50
2024-05-09T04:09:41.279Z,16.80
2024-05-09T04:10:41.270Z,17.00
2024-05-09T04:11:41.502Z,16.40
2024-05-09T04:12:41.280Z,15.00
2024-05-09T04:13:41.228Z,16.90
2024-05-09T04:14:41.295Z,17.60
2024-05-09T04:15:41.223Z,16.40
2024-05-09T04:16:41.247Z,18.30
2024-05-09T04:17:41.397Z,16.30
2024-05-09T04:18:41.325Z,17.70
2024-05-09T04:19:41.199Z,16.30
2024-05-09T04:20:41.598Z,16.40
2024-05-09T04:21:41.176Z,15.60
2024-05-09T04:22:41.143Z,16.90
2024-05-09T04:23:41.241Z,16.40
2024-05-09T04:24:41.142Z,15.80
2024-05-09T04:25:41.112Z,15.50
2024-05-09T04:26:41.131Z,14.90
2024-05-09T04:27:41.098Z,16.00
2024-05-09T04:28:41.056Z,14.60
2024-05-09T04:29:41.040Z,15.30
2024-05-09T04:30:42.057Z,15.80
2024-05-09T04:31:41.073Z,16.20
2024-05-09T04:32:41.223Z,16.00
2024-05-09T04:33:41.144Z,19.10
2024-05-09T04:34:41.097Z,14.20
2024-05-09T04:35:41.091Z,16.70
2024-05-09T04:36:43.981Z,13.60
2024-05-09T04:37:40.974Z,15.50
2024-05-09T04:38:41.038Z,15.30
2024-05-09T04:39:40.977Z,16.60
2024-05-09T04:40:40.936Z,14.50
2024-05-09T04:41:41.519Z,15.00
2024-05-09T04:42:40.906Z,15.30
2024-05-09T04:43:40.892Z,20.90
2024-05-09T04:44:40.946Z,13.90
2024-05-09T04:45:40.905Z,15.30
2024-05-09T04:46:40.901Z,16.40
2024-05-09T04:47:41.123Z,15.00
2024-05-09T04:48:40.974Z,16.30
2024-05-09T04:49:40.859Z,12.00
2024-05-09T04:50:40.999Z,16.00
2024-05-09T04:51:40.808Z,14.10
2024-05-09T04:52:40.798Z,14.70
2024-05-09T04:53:40.994Z,15.80
2024-05-09T04:54:40.803Z,15.60
2024-05-09T04:55:40.913Z,13.90
2024-05-09T04:56:40.829Z,14.00
2024-05-09T04:57:41.651Z,13.10
2024-05-09T04:58:40.758Z,14.20
2024-05-09T04:59:41.057Z,12.70
2024-05-09T05:00:41.433Z,13.60
2024-05-09T05:01:40.710Z,13.60
2024-05-09T05:02:40.759Z,16.20
2024-05-09T05:03:40.996Z,13.90
2024-05-09T05:04:40.727Z,13.50
2024-05-09T05:05:41.299Z,13.30
2024-05-09T05:06:40.642Z,13.80
2024-05-09T05:07:40.620Z,14.70
2024-05-09T05:08:40.688Z,14.60
2024-05-09T05:09:40.621Z,12.40
2024-05-09T05:10:40.643Z,15.60
2024-05-09T05:11:40.780Z,13.00
2024-05-09T05:12:40.628Z,15.20
2024-05-09T05:13:41.680Z,14.60
2024-05-09T05:14:40.648Z,14.90
2024-05-09T05:15:40.543Z,15.00
2024-05-09T05:16:40.545Z,12.60
2024-05-09T05:17:40.673Z,14.40
2024-05-09T05:18:40.600Z,13.20
2024-05-09T05:19:40.577Z,15.80
2024-05-09T05:20:40.530Z,14.50
2024-05-09T05:21:40.470Z,17.80
2024-05-09T05:22:40.509Z,14.60
2024-05-09T05:23:40.611Z,14.40
2024-05-09T05:24:40.458Z,14.60
2024-05-09T05:25:40.457Z,13.20
2024-05-09T05:26:40.528Z,13.70
2024-05-09T05:27:40.401Z,14.40
2024-05-09T05:28:40.414Z,13.70
2024-05-09T05:29:40.483Z,13.00
2024-05-09T05:30:40.391Z,13.20
2024-05-09T05:31:40.425Z,16.70
2024-05-09T05:32:40.553Z,14.10
2024-05-09T05:33:40.439Z,16.50
2024-05-09T05:34:40.328Z,13.80
2024-05-09T05:35:40.376Z,15.60
2024-05-09T05:36:40.307Z,13.90
2024-05-09T05:37:40.304Z,13.30
2024-05-09T05:38:40.390Z,13.50
2024-05-09T05:39:40.271Z,14.30
2024-05-09T05:40:41.060Z,15.20
2024-05-09T05:41:40.286Z,13.80
2024-05-09T05:42:40.280Z,13.80
2024-05-09T05:43:40.234Z,15.80
2024-05-09T05:44:40.260Z,13.10
2024-05-09T05:45:40.218Z,13.00
2024-05-09T05:46:40.199Z,13.80
2024-05-09T05:47:40.467Z,14.70
2024-05-09T05:48:40.310Z,12.30
2024-05-09T05:49:40.201Z,13.30
2024-05-09T05:50:40.203Z,14.40
2024-05-09T05:51:40.145Z,13.60
2024-05-09T05:52:40.151Z,17.00
2024-05-09T05:53:40.286Z,18.30
2024-05-09T05:54:40.116Z,14.60
2024-05-09T05:55:40.249Z,13.30
2024-05-09T05:56:40.192Z,14.90
2024-05-09T05:57:40.098Z,12.50
2024-05-09T05:58:40.064Z,15.60
2024-05-09T05:59:40.092Z,11.90
2024-05-09T06:00:41.069Z,13.80
2024-05-09T06:01:40.065Z,14.10
2024-05-09T06:02:40.226Z,11.90
2024-05-09T06:03:40.156Z,14.90
2024-05-09T06:04:40.085Z,12.40
2024-05-09T06:05:41.211Z,13.30
2024-05-09T06:06:40.006Z,13.30
2024-05-09T06:07:40.034Z,12.40
2024-05-09T06:08:39.968Z,12.20
2024-05-09T06:09:39.957Z,11.80
2024-05-09T06:10:41.245Z,12.30
2024-05-09T06:11:40.653Z,12.60
2024-05-09T06:12:39.953Z,13.30
2024-05-09T06:13:39.949Z,17.30
2024-05-09T06:14:40.030Z,13.30
2024-05-09T06:15:39.947Z,12.40
2024-05-09T06:16:39.905Z,15.00
2024-05-09T06:17:39.997Z,12.50
2024-05-09T06:18:40.124Z,11.80
2024-05-09T06:19:39.917Z,15.50
2024-05-09T06:20:40.349Z,13.90
2024-05-09T06:21:39.817Z,13.70
2024-05-09T06:22:39.865Z,14.00
2024-05-09T06:23:39.986Z,18.40
2024-05-09T06:24:39.774Z,13.90
2024-05-09T06:25:39.812Z,14.90
2024-05-09T06:26:40.454Z,12.30
2024-05-09T06:27:39.743Z,12.80
2024-05-09T06:28:39.754Z,13.20
2024-05-09T06:29:39.921Z,12.80
2024-05-09T06:30:41.743Z,12.80
2024-05-09T06:31:39.695Z,12.20
2024-05-09T06:32:39.897Z,12.00
2024-05-09T06:33:39.842Z,12.00
2024-05-09T06:34:39.799Z,15.70
2024-05-09T06:35:39.933Z,12.40
2024-05-09T06:36:39.662Z,13.70
2024-05-09T06:37:39.640Z,12.30
2024-05-09T06:38:39.827Z,12.20
2024-05-09T06:39:39.632Z,14.40
2024-05-09T06:40:41.228Z,13.10
2024-05-09T06:41:39.624Z,13.30
2024-05-09T06:42:39.771Z,16.90
2024-05-09T06:43:39.547Z,11.10
2024-05-09T06:44:40.164Z,12.30
2024-05-09T06:45:39.865Z,12.10
2024-05-09T06:46:39.601Z,15.50
2024-05-09T06:47:39.886Z,13.10
2024-05-09T06:48:39.768Z,16.30
2024-05-09T06:49:39.638Z,14.80
2024-05-09T06:50:40.227Z,13.20
2024-05-09T06:51:39.500Z,15.70
2024-05-09T06:52:39.617Z,13.60
2024-05-09T06:53:39.646Z,12.50
2024-05-09T06:54:39.605Z,13.40
2024-05-09T06:55:39.621Z,14.10
2024-05-09T06:56:39.479Z,14.10
2024-05-09T06:57:42.477Z,11.90
2024-05-09T06:58:39.389Z,12.30
2024-05-09T06:59:39.443Z,13.50
2024-05-09T07:00:41.727Z,11.90
2024-05-09T07:01:39.483Z,14.20
2024-05-09T07:02:39.559Z,14.00
2024-05-09T07:03:40.781Z,11.60
2024-05-09T07:04:39.489Z,12.10
2024-05-09T07:05:39.382Z,13.10
2024-05-09T07:06:39.315Z,13.00
2024-05-09T07:08:02.917Z,14.50
2024-05-09T07:08:39.445Z,12.00
2024-05-09T07:09:39.332Z,13.60
2024-05-09T07:10:42.433Z,14.80
2024-05-09T07:11:39.430Z,12.50
2024-05-09T07:12:39.364Z,13.90
2024-05-09T07:13:39.274Z,13.70
2024-05-09T07:14:41.756Z,16.90
2024-05-09T07:15:40.714Z,15.30
2024-05-09T07:16:41.864Z,13.20
2024-05-09T07:17:40.840Z,14.90
2024-05-09T07:18:39.549Z,15.30
2024-05-09T07:19:40.479Z,13.50
2024-05-09T07:20:40.137Z,13.40
2024-05-09T07:21:42.000Z,13.90
2024-05-09T07:22:41.917Z,12.50
2024-05-09T07:23:40.319Z,14.30
2024-05-09T07:24:39.141Z,11.60
2024-05-09T07:25:39.137Z,12.90
2024-05-09T07:26:39.206Z,12.10
2024-05-09T07:27:39.669Z,11.90
2024-05-09T07:28:39.061Z,15.80
2024-05-09T07:29:39.161Z,13.60
2024-05-09T07:30:39.043Z,13.30
2024-05-09T07:31:39.039Z,13.10
2024-05-09T07:32:39.212Z,13.70
2024-05-09T07:33:39.322Z,12.80
2024-05-09T07:34:39.195Z,12.50
2024-05-09T07:35:39.973Z,12.60
2024-05-09T07:36:39.060Z,13.80
2024-05-09T07:37:38.957Z,12.90
2024-05-09T07:38:39.292Z,14.20
2024-05-09T07:39:39.005Z,13.30
2024-05-09T07:40:38.954Z,12.90
2024-05-09T07:41:39.037Z,12.50
2024-05-09T07:42:38.929Z,13.10
2024-05-09T07:43:39.082Z,16.30
2024-05-09T07:44:38.970Z,13.30
2024-05-09T07:45:48.690Z,13.10
2024-05-09T07:47:47.346Z,17.10
2024-05-09T07:50:53.237Z,12.50
2024-05-09T07:53:32.544Z,14.40
2024-05-09T07:53:49.421Z,12.90
2024-05-09T07:54:00.512Z,14.60
2024-05-09T07:54:56.464Z,14.40
2024-05-09T07:55:56.873Z,13.20
2024-05-09T07:56:56.436Z,12.40
2024-05-09T07:57:56.662Z,11.90
2024-05-09T07:58:56.373Z,13.90
2024-05-09T07:59:56.044Z,12.80
2024-05-09T08:00:56.221Z,13.80
2024-05-09T08:01:56.148Z,14.70
2024-05-09T08:02:56.190Z,13.60
2024-05-09T08:03:56.365Z,13.50
2024-05-09T08:04:56.200Z,13.80
2024-05-09T08:05:55.916Z,14.40
2024-05-09T08:06:55.952Z,14.60
2024-05-09T08:07:55.912Z,14.50
2024-05-09T08:08:55.986Z,12.60
2024-05-09T08:09:55.949Z,13.40
2024-05-09T08:10:55.947Z,13.10
2024-05-09T08:11:55.937Z,15.50
2024-05-09T08:12:56.115Z,12.20
2024-05-09T08:13:55.811Z,12.70
2024-05-09T08:14:55.857Z,15.70
2024-05-09T08:15:55.976Z,11.30
2024-05-09T08:16:55.822Z,15.00
2024-05-09T08:18:15.416Z,13.50
2024-05-09T08:18:56.757Z,13.00
2024-05-09T08:19:56.552Z,12.90
2024-05-09T08:20:55.794Z,12.00
2024-05-09T08:21:57.125Z,10.40
2024-05-09T08:22:55.746Z,14.60
2024-05-09T08:23:55.728Z,11.60
2024-05-09T08:24:55.812Z,10.70
2024-05-09T08:25:55.771Z,12.50
2024-05-09T08:26:55.720Z,10.40
2024-05-09T08:27:55.847Z,11.20
2024-05-09T08:28:55.639Z,13.70
2024-05-09T08:29:55.778Z,14.00
2024-05-09T08:30:56.201Z,10.90
2024-05-09T08:31:55.746Z,12.70
2024-05-09T08:32:55.821Z,11.20
2024-05-09T08:33:55.849Z,11.20
2024-05-09T08:34:56.966Z,12.40
2024-05-09T08:35:55.684Z,12.10
2024-05-09T08:36:57.560Z,10.00
2024-05-09T08:37:55.791Z,11.40
2024-05-09T08:38:55.590Z,10.20
2024-05-09T08:39:55.757Z,10.80
2024-05-09T08:40:55.626Z,10.80
2024-05-09T08:41:56.758Z,11.40
2024-05-09T08:42:55.609Z,14.00
2024-05-09T08:43:55.519Z,10.30
2024-05-09T08:44:55.512Z,10.20
2024-05-09T08:45:55.585Z,11.30
2024-05-09T08:46:55.506Z,10.10
2024-05-09T08:47:55.692Z,10.40
2024-05-09T08:48:55.689Z,12.00
2024-05-09T08:49:56.893Z,10.40
2024-05-09T08:50:56.830Z,10.60
2024-05-09T08:51:55.489Z,9.90
2024-05-09T08:52:56.857Z,10.20
2024-05-09T08:53:55.483Z,9.40
2024-05-09T08:54:55.522Z,11.20
2024-05-09T08:55:55.351Z,11.90
2024-05-09T08:56:55.347Z,11.40
2024-05-09T08:57:55.385Z,11.90
2024-05-09T08:58:55.332Z,11.10
2024-05-09T08:59:55.328Z,12.30
2024-05-09T09:00:55.466Z,8.50
2024-05-09T09:01:55.541Z,11.40
2024-05-09T09:02:55.335Z,10.10
2024-05-09T09:03:55.421Z,9.50
2024-05-09T09:04:55.338Z,10.00
2024-05-09T09:05:55.257Z,10.30
2024-05-09T09:06:58.183Z,13.50
2024-05-09T09:07:55.210Z,8.90
2024-05-09T09:08:55.556Z,10.20
2024-05-09T09:09:55.394Z,9.10
2024-05-09T09:10:55.988Z,10.70
2024-05-09T09:11:55.227Z,9.00
2024-05-09T09:12:55.279Z,12.40
2024-05-09T09:13:55.197Z,10.80
2024-05-09T09:14:55.150Z,13.40
2024-05-09T09:15:55.162Z,10.00
2024-05-09T09:16:55.137Z,14.60
2024-05-09T09:17:55.263Z,12.50
2024-05-09T09:18:55.353Z,8.40
2024-05-09T09:19:56.237Z,9.40
2024-05-09T09:20:55.307Z,10.40
2024-05-09T09:21:56.857Z,10.60
2024-05-09T09:22:55.168Z,8.50
2024-05-09T09:23:55.048Z,7.80
2024-05-09T09:24:55.163Z,9.20
2024-05-09T09:25:55.020Z,8.20
2024-05-09T09:26:55.043Z,8.80
2024-05-09T09:27:55.149Z,7.10
2024-05-09T09:28:56.844Z,7.90
2024-05-09T09:29:54.997Z,8.10
2024-05-09T09:30:55.059Z,8.30
2024-05-09T09:31:54.960Z,8.50
2024-05-09T09:32:55.210Z,8.60
2024-05-09T09:33:55.261Z,10.80
2024-05-09T09:34:55.096Z,8.20
2024-05-09T09:35:56.841Z,8.30
2024-05-09T09:36:55.034Z,8.20
2024-05-09T09:37:54.962Z,8.40
2024-05-09T09:38:56.675Z,6.80
2024-05-09T09:39:54.956Z,6.50
2024-05-09T09:40:54.941Z,6.00
2024-05-09T09:41:54.866Z,6.00
2024-05-09T09:42:54.924Z,9.70
2024-05-09T09:43:54.829Z,7.40
2024-05-09T09:45:03.777Z,7.10
2024-05-09T09:45:54.992Z,8.50
2024-05-09T09:46:54.890Z,6.70
2024-05-09T09:47:54.914Z,7.40
2024-05-09T09:48:54.898Z,7.60
2024-05-09T09:49:54.908Z,8.60
2024-05-09T09:50:54.741Z,7.80
2024-05-09T09:51:54.898Z,7.80
2024-05-09T09:52:54.761Z,7.40
2024-05-09T09:53:54.752Z,7.10
2024-05-09T09:54:55.037Z,7.10
2024-05-09T09:55:54.689Z,7.30
2024-05-09T09:56:54.698Z,11.70
2024-05-09T09:57:54.848Z,8.00
2024-05-09T09:58:54.716Z,8.70
2024-05-09T09:59:54.652Z,7.70
2024-05-09T10:00:54.874Z,6.90
2024-05-09T10:01:56.724Z,7.60
2024-05-09T10:02:54.703Z,7.40
2024-05-09T10:03:54.688Z,8.10
2024-05-09T10:04:54.799Z,8.50
2024-05-09T10:05:54.756Z,8.10
2024-05-09T10:06:54.734Z,9.80
2024-05-09T10:07:54.568Z,7.40
2024-05-09T10:08:54.552Z,10.00
2024-05-09T10:09:54.618Z,7.90
2024-05-09T10:10:54.719Z,7.00
2024-05-09T10:11:59.859Z,7.20
2024-05-09T10:12:54.561Z,8.10
2024-05-09T10:13:54.473Z,7.80
2024-05-09T10:14:54.499Z,8.50
2024-05-09T10:15:54.839Z,6.30
2024-05-09T10:16:54.454Z,6.30
2024-05-09T10:17:55.165Z,6.10
2024-05-09T10:18:56.804Z,6.50
2024-05-09T10:19:54.488Z,6.40
2024-05-09T10:20:54.395Z,6.50
2024-05-09T10:21:54.579Z,6.00
2024-05-09T10:22:54.378Z,6.80
2024-05-09T10:23:54.390Z,8.00
2024-05-09T10:24:54.449Z,6.90
2024-05-09T10:25:54.378Z,7.20
2024-05-09T10:26:54.352Z,7.70
2024-05-09T10:27:54.466Z,7.20
2024-05-09T10:28:54.337Z,8.50
2024-05-09T10:29:54.302Z,7.10
2024-05-09T10:30:54.386Z,6.70
2024-05-09T10:31:54.334Z,7.00
2024-05-09T10:32:54.343Z,6.70
2024-05-09T10:33:54.440Z,7.60
2024-05-09T10:34:54.317Z,5.90
2024-05-09T10:35:54.289Z,5.90
2024-05-09T10:36:54.264Z,6.00
2024-05-09T10:37:54.212Z,6.00
2024-05-09T10:38:54.201Z,6.00
2024-05-09T10:39:54.286Z,6.00
2024-05-09T10:40:54.226Z,6.80
2024-05-09T10:41:54.240Z,6.00
2024-05-09T10:42:54.223Z,7.00
2024-05-09T10:43:54.179Z,5.30
2024-05-09T10:44:54.135Z,6.60
2024-05-09T10:45:54.296Z,6.30
2024-05-09T10:46:54.208Z,6.00
2024-05-09T10:47:54.421Z,8.20
2024-05-09T10:48:54.276Z,6.40
2024-05-09T10:49:54.221Z,7.40
2024-05-09T10:50:54.086Z,5.40
2024-05-09T10:51:54.161Z,5.20
2024-05-09T10:52:54.057Z,6.00
2024-05-09T10:53:54.114Z,5.80
2024-05-09T10:54:54.087Z,6.40
2024-05-09T10:55:54.007Z,5.50
2024-05-09T10:56:54.675Z,6.00
2024-05-09T10:57:54.251Z,5.30
2024-05-09T10:58:54.693Z,6.00
2024-05-09T10:59:54.035Z,5.90
2024-05-09T11:00:54.040Z,5.80
2024-05-09T11:01:54.109Z,8.20
2024-05-09T11:02:53.939Z,7.60
2024-05-09T11:03:54.107Z,6.10
2024-05-09T11:04:54.139Z,7.00
2024-05-09T11:05:54.046Z,6.40
2024-05-09T11:06:53.966Z,6.20
2024-05-09T11:07:53.882Z,5.70
2024-05-09T11:08:53.859Z,6.50
2024-05-09T11:09:53.913Z,5.90
2024-05-09T11:10:53.917Z,7.40
2024-05-09T11:11:53.919Z,5.80
2024-05-09T11:12:53.821Z,5.40
2024-05-09T11:13:53.937Z,5.40
2024-05-09T11:14:53.796Z,6.00
2024-05-09T11:15:53.851Z,7.30
2024-05-09T11:16:53.769Z,6.00
2024-05-09T11:17:53.844Z,7.00
2024-05-09T11:18:53.898Z,8.60
2024-05-09T11:19:53.762Z,6.60
2024-05-09T11:20:53.738Z,6.10
2024-05-09T11:21:53.776Z,6.90
2024-05-09T11:22:53.710Z,6.00
2024-05-09T11:23:53.786Z,6.20
2024-05-09T11:24:54.186Z,9.10
2024-05-09T11:25:53.687Z,5.80
2024-05-09T11:26:53.692Z,5.80
2024-05-09T11:27:53.662Z,7.00
2024-05-09T11:28:54.500Z,8.20
2024-05-09T11:29:53.673Z,5.90
2024-05-09T11:30:53.641Z,4.70
2024-05-09T11:31:53.741Z,7.50
2024-05-09T11:32:54.685Z,5.70
2024-05-09T11:33:53.747Z,7.00
2024-05-09T11:34:53.618Z,6.60
2024-05-09T11:35:53.553Z,6.80
2024-05-09T11:36:53.612Z,8.20
2024-05-09T11:37:53.653Z,6.60
2024-05-09T11:38:53.533Z,8.30
2024-05-09T11:39:53.680Z,7.60
2024-05-09T11:40:53.631Z,5.70
2024-05-09T11:41:53.550Z,6.40
2024-05-09T11:42:53.716Z,8.30
2024-05-09T11:43:53.476Z,5.80
2024-05-09T11:44:53.455Z,5.80
2024-05-09T11:45:53.453Z,5.40
2024-05-09T11:46:53.420Z,5.30
2024-05-09T11:47:53.550Z,5.40
2024-05-09T11:48:53.605Z,6.20
2024-05-09T11:49:53.525Z,5.10
2024-05-09T11:50:53.390Z,5.20
2024-05-09T11:51:53.501Z,5.10
2024-05-09T11:52:53.417Z,5.90
2024-05-09T11:53:53.388Z,5.00
2024-05-09T11:54:53.382Z,5.80
2024-05-09T11:55:53.411Z,5.50
2024-05-09T11:56:53.334Z,6.30
2024-05-09T11:57:53.438Z,4.60
2024-05-09T11:58:53.348Z,5.50
2024-05-09T11:59:53.280Z,4.30
2024-05-09T12:00:53.481Z,4.90
2024-05-09T12:01:53.474Z,4.00
2024-05-09T12:02:53.339Z,4.50
2024-05-09T12:03:53.461Z,5.30
2024-05-09T12:04:53.363Z,4.10
2024-05-09T12:05:53.283Z,4.60
2024-05-09T12:06:53.243Z,5.60
2024-05-09T12:07:53.209Z,4.30
2024-05-09T12:08:53.200Z,5.50
2024-05-09T12:09:53.182Z,3.40
2024-05-09T12:10:53.615Z,6.90
2024-05-09T12:11:53.375Z,4.10
2024-05-09T12:12:53.178Z,5.00
2024-05-09T12:13:53.113Z,4.70
2024-05-09T12:14:53.107Z,3.70
2024-05-09T12:15:53.128Z,3.80
2024-05-09T12:16:53.189Z,5.50
2024-05-09T12:17:53.305Z,4.00
2024-05-09T12:18:53.890Z,5.10
2024-05-09T12:19:53.053Z,4.00
2024-05-09T12:20:53.142Z,4.90
2024-05-09T12:21:53.071Z,5.90
2024-05-09T12:22:53.075Z,4.50
2024-05-09T12:23:53.025Z,4.80
2024-05-09T12:24:53.081Z,8.40
2024-05-09T12:25:52.996Z,6.70
2024-05-09T12:26:52.989Z,4.50
2024-05-09T12:27:53.031Z,4.10
2024-05-09T12:28:52.990Z,4.50
2024-05-09T12:29:52.979Z,4.50
2024-05-09T12:30:52.978Z,4.60
2024-05-09T12:31:53.024Z,5.40
2024-05-09T12:32:53.211Z,4.40
2024-05-09T12:33:52.972Z,4.40
2024-05-09T12:34:52.915Z,4.30
2024-05-09T12:35:52.895Z,4.20
2024-05-09T12:36:52.953Z,4.90
2024-05-09T12:37:52.889Z,4.40
2024-05-09T12:38:52.843Z,4.10
2024-05-09T12:39:52.855Z,4.20
2024-05-09T12:40:53.108Z,4.10
2024-05-09T12:41:52.846Z,4.90
2024-05-09T12:42:52.813Z,5.20
2024-05-09T12:43:53.070Z,4.80
2024-05-09T12:44:53.911Z,5.00
2024-05-09T12:45:53.546Z,5.00
2024-05-09T12:46:52.772Z,4.80
2024-05-09T12:47:52.842Z,4.50
2024-05-09T12:48:53.232Z,5.60
2024-05-09T12:49:52.788Z,6.30
2024-05-09T12:50:52.785Z,4.80
2024-05-09T12:51:53.521Z,5.90
2024-05-09T12:52:52.712Z,6.10
2024-05-09T12:53:52.743Z,4.40
2024-05-09T12:54:52.704Z,6.90
2024-05-09T12:55:56.791Z,5.30
2024-05-09T12:56:52.745Z,5.00
2024-05-09T12:57:52.730Z,6.00
2024-05-09T12:58:53.671Z,6.60
2024-05-09T12:59:53.052Z,5.00
2024-05-09T13:00:53.110Z,5.90
2024-05-09T13:01:52.709Z,5.10
2024-05-09T13:02:52.622Z,5.40
2024-05-09T13:03:52.866Z,5.50